Main page
METAR-TAF:

METAR-TAF

Airports :

Riyadh Air Base

Riyadh, Saudi Arabia

latitude: 24-43N, longitude: 046-44E, elevation: 635 m

Current weather observation

The report was made 17 minutes ago, at 12:00 UTC
Wind 14 kt from the North/Northwest
Temperature 22°C
Humidity 29%
Pressure 1014 hPa
Visibility: 5000 m
Scattered clouds at a height of 4000 ft

METAR: OERY 201200Z 33014KT 5000 SCT040 22/03 Q1014

Time: 15:17 (12:17 UTC)

Forecast

The report was made 1 hour and 17 minutes ago, at 11:00 UTC
Forecast valid from 20 at 12 UTC to 21 at 18 UTC
Wind 12 kt from the North/Northwest
Visibility: 7000 m
Becoming
from 20 at 18 UTC to 20 at 20 UTC
Wind 3 kt from variable directions

TAF: OERY 201100Z 2012/2118 34012KT 7000 NSC BECMG 2018/2020 VRB03KT

Weather observations and forecasts of more than 4000 airports (METAR and TAF reports).

The available stations are represented by yellow and red dots on the map.

Hover mouse over dot to see the name of the station.

Then click to see weather observations and forecasts.

To change the map : click on the green buttons with a black cross to zoom in, on the green button with a dash to zoom out, or on the green arrows for adjacent maps.


METAR-TAF: